Time;durP1;ratioP1;P1;durP2;ratioP2;P2;SDS_P1;SDS_P2;PMS_P1;PMS_P2;Temp;Humidity;BMP_temperature;BMP_pressure;BME280_temperature;BME280_humidity;BME280_pressure;Samples;Min_cycle;Max_cycle;Signal;HPM_P1;HPM_P2
2023/06/25 00:02:13;;;;;;;19.92;13.60;;;;;;;;;;5032749;28;20041;-75
2023/06/25 00:04:39;;;;;;;15.23;12.02;;;;;;;;;;5030819;28;20075;-75
2023/06/25 00:07:05;;;;;;;21.83;12.55;;;;;;;;;;5031255;28;20025;-74
2023/06/25 00:09:32;;;;;;;22.75;13.90;;;;;;;;;;5031212;28;20107;-74
2023/06/25 00:11:58;;;;;;;21.20;13.73;;;;;;;;;;5030889;28;20548;-74
2023/06/25 00:14:24;;;;;;;25.33;15.13;;;;;;;;;;5031239;28;20033;-74
2023/06/25 00:16:57;;;;;;;22.65;14.32;;;;;;;;;;5031470;28;20018;-75
2023/06/25 00:19:23;;;;;;;19.50;14.70;;;;;;;;;;5030034;28;20028;-76
2023/06/25 00:21:49;;;;;;;22.75;13.77;;;;;;;;;;5031101;28;20033;-75
2023/06/25 00:24:15;;;;;;;27.75;15.25;;;;;;;;;;5031749;28;20577;-75
2023/06/25 00:26:45;;;;;;;23.52;13.90;;;;;;;;;;5031291;28;20075;-74
2023/06/25 00:29:13;;;;;;;24.13;14.52;;;;;;;;;;5031992;28;20022;-73
2023/06/25 00:31:39;;;;;;;21.50;14.27;;;;;;;;;;5032081;28;20026;-73
2023/06/25 00:34:05;;;;;;;23.27;14.32;;;;;;;;;;5032083;28;20029;-73
2023/06/25 00:36:36;;;;;;;20.35;14.25;;;;;;;;;;5032303;28;20379;-74
2023/06/25 00:39:02;;;;;;;26.50;14.68;;;;;;;;;;5031008;28;20021;-74
2023/06/25 00:41:28;;;;;;;22.10;14.60;;;;;;;;;;5030846;28;20033;-74
2023/06/25 00:43:54;;;;;;;23.77;14.75;;;;;;;;;;5031169;28;20419;-73
2023/06/25 00:46:23;;;;;;;23.60;15.88;;;;;;;;;;5034643;28;20072;-76
2023/06/25 00:48:49;;;;;;;30.85;15.93;;;;;;;;;;5034553;28;20427;-75
2023/06/25 00:51:16;;;;;;;23.00;14.88;;;;;;;;;;5034423;28;20144;-74
2023/06/25 00:53:43;;;;;;;23.92;15.73;;;;;;;;;;5034150;28;20212;-73
2023/06/25 00:56:09;;;;;;;21.20;15.38;;;;;;;;;;5034331;28;20030;-72
2023/06/25 00:58:37;;;;;;;23.80;15.93;;;;;;;;;;5033367;28;20021;-74
2023/06/25 01:01:05;;;;;;;22.15;14.90;;;;;;;;;;5034318;28;20109;-74
2023/06/25 01:03:36;;;;;;;25.30;15.35;;;;;;;;;;5034026;28;20025;-74
2023/06/25 01:06:09;;;;;;;25.33;14.93;;;;;;;;;;5034403;28;20017;-74
2023/06/25 01:08:37;;;;;;;21.83;15.20;;;;;;;;;;5034106;28;20025;-74
2023/06/25 01:11:05;;;;;;;30.13;16.60;;;;;;;;;;5034930;28;20021;-74
2023/06/25 01:13:31;;;;;;;27.15;16.30;;;;;;;;;;5036149;28;20196;-74
2023/06/25 01:15:57;;;;;;;24.13;16.55;;;;;;;;;;5035316;28;20030;-74
2023/06/25 01:18:23;;;;;;;26.70;16.77;;;;;;;;;;5034745;28;20030;-73
2023/06/25 01:20:51;;;;;;;25.77;17.38;;;;;;;;;;5035513;28;20394;-78
2023/06/25 01:23:17;;;;;;;25.38;15.88;;;;;;;;;;5035042;28;20032;-73
2023/06/25 01:25:48;;;;;;;22.20;15.55;;;;;;;;;;5037242;28;20032;-74
2023/06/25 01:28:14;;;;;;;23.70;15.45;;;;;;;;;;5036276;28;20120;-74
2023/06/25 01:30:40;;;;;;;26.55;16.63;;;;;;;;;;5036408;28;20030;-74
2023/06/25 01:33:06;;;;;;;24.83;15.82;;;;;;;;;;5034969;28;20049;-77
2023/06/25 01:35:32;;;;;;;27.55;15.73;;;;;;;;;;5036951;28;20471;-74
2023/06/25 01:37:58;;;;;;;23.88;16.48;;;;;;;;;;5052746;28;20390;-75
2023/06/25 01:40:25;;;;;;;24.77;14.70;;;;;;;;;;5043196;28;20043;-73
2023/06/25 01:42:52;;;;;;;24.73;15.88;;;;;;;;;;5031970;28;20419;-74
2023/06/25 01:45:19;;;;;;;22.17;15.80;;;;;;;;;;5032318;28;20017;-75
2023/06/25 01:47:45;;;;;;;26.83;17.48;;;;;;;;;;5032655;28;20064;-75
2023/06/25 01:50:11;;;;;;;32.25;19.98;;;;;;;;;;5032286;28;20495;-75
2023/06/25 01:52:38;;;;;;;31.85;19.02;;;;;;;;;;5031373;28;20036;-75
2023/06/25 01:55:04;;;;;;;29.02;17.95;;;;;;;;;;5032089;28;20028;-75
2023/06/25 01:57:30;;;;;;;27.85;18.80;;;;;;;;;;5031351;28;20048;-75
2023/06/25 01:59:56;;;;;;;26.23;18.50;;;;;;;;;;5031956;28;20464;-74
2023/06/25 02:02:22;;;;;;;33.33;19.02;;;;;;;;;;5031614;28;20029;-77
2023/06/25 02:04:48;;;;;;;32.75;17.95;;;;;;;;;;5032752;28;20541;-76
2023/06/25 02:07:14;;;;;;;26.45;18.25;;;;;;;;;;5032476;28;20113;-73
2023/06/25 02:09:40;;;;;;;30.23;19.00;;;;;;;;;;5032603;28;20091;-75
2023/06/25 02:12:06;;;;;;;26.92;17.88;;;;;;;;;;5033036;28;20503;-75
2023/06/25 02:14:32;;;;;;;25.88;17.95;;;;;;;;;;5032309;28;20025;-74
2023/06/25 02:16:58;;;;;;;28.20;18.55;;;;;;;;;;5032278;28;20036;-75
2023/06/25 02:19:24;;;;;;;28.15;18.40;;;;;;;;;;5032857;28;20022;-75
2023/06/25 02:21:50;;;;;;;29.48;18.15;;;;;;;;;;5031476;28;20036;-74
2023/06/25 02:24:16;;;;;;;33.20;19.73;;;;;;;;;;5032586;28;20033;-75
2023/06/25 02:26:42;;;;;;;33.17;19.25;;;;;;;;;;5033091;28;20028;-75
2023/06/25 02:29:08;;;;;;;29.23;18.23;;;;;;;;;;5032438;28;20422;-75
2023/06/25 02:31:34;;;;;;;27.48;18.08;;;;;;;;;;5032127;28;20127;-74
2023/06/25 02:34:00;;;;;;;28.17;18.30;;;;;;;;;;5032142;28;20018;-74
2023/06/25 02:36:26;;;;;;;28.77;18.27;;;;;;;;;;5032336;28;20426;-75
2023/06/25 02:38:52;;;;;;;28.25;17.80;;;;;;;;;;5032244;28;20025;-76
2023/06/25 02:41:18;;;;;;;28.23;17.30;;;;;;;;;;5032134;28;20079;-74
2023/06/25 02:43:44;;;;;;;30.75;17.33;;;;;;;;;;5031933;28;20454;-74
2023/06/25 02:46:10;;;;;;;28.75;17.33;;;;;;;;;;5032060;28;20072;-74
2023/06/25 02:48:37;;;;;;;30.90;18.05;;;;;;;;;;5032114;28;20026;-74
2023/06/25 02:51:03;;;;;;;26.55;17.33;;;;;;;;;;5031987;28;20379;-74
2023/06/25 02:53:29;;;;;;;24.25;17.05;;;;;;;;;;5032048;28;20071;-75
2023/06/25 02:55:55;;;;;;;26.65;16.77;;;;;;;;;;5031956;28;20414;-74
2023/06/25 02:58:21;;;;;;;25.42;17.15;;;;;;;;;;5032144;28;20083;-75
2023/06/25 03:00:48;;;;;;;26.80;17.33;;;;;;;;;;5032089;28;20033;-76
2023/06/25 03:03:14;;;;;;;25.17;16.42;;;;;;;;;;5034646;28;20026;-74
2023/06/25 03:05:40;;;;;;;33.03;17.67;;;;;;;;;;5041382;28;20018;-73
2023/06/25 03:08:06;;;;;;;25.45;16.63;;;;;;;;;;5049002;28;20028;-74
2023/06/25 03:10:33;;;;;;;26.88;17.40;;;;;;;;;;5042133;28;20044;-72
2023/06/25 03:12:59;;;;;;;25.75;16.95;;;;;;;;;;5033696;28;20096;-71
2023/06/25 03:15:25;;;;;;;24.10;15.20;;;;;;;;;;5032355;28;20029;-74
2023/06/25 03:17:51;;;;;;;19.23;13.85;;;;;;;;;;5032234;28;20026;-73
2023/06/25 03:20:17;;;;;;;22.13;14.43;;;;;;;;;;5031916;28;20364;-73
2023/06/25 03:22:43;;;;;;;19.77;14.05;;;;;;;;;;5031321;28;20037;-73
2023/06/25 03:25:09;;;;;;;20.52;14.27;;;;;;;;;;5033220;28;20033;-73
2023/06/25 03:27:35;;;;;;;22.15;14.27;;;;;;;;;;5035045;28;20033;-75
2023/06/25 03:30:02;;;;;;;24.00;14.80;;;;;;;;;;5034209;28;20067;-74
2023/06/25 03:32:28;;;;;;;23.50;14.88;;;;;;;;;;5033157;28;20033;-73
2023/06/25 03:34:55;;;;;;;22.70;15.07;;;;;;;;;;5032605;28;20399;-73
2023/06/25 03:37:21;;;;;;;22.60;15.75;;;;;;;;;;5031221;28;20030;-72
2023/06/25 03:39:47;;;;;;;24.90;15.70;;;;;;;;;;5031242;28;20026;-73
2023/06/25 03:42:13;;;;;;;24.85;15.60;;;;;;;;;;5031109;28;20036;-75
2023/06/25 03:44:45;;;;;;;23.60;15.27;;;;;;;;;;5031403;28;20025;-74
2023/06/25 03:47:11;;;;;;;22.25;14.80;;;;;;;;;;5031464;28;20032;-72
2023/06/25 03:49:37;;;;;;;21.02;14.27;;;;;;;;;;5033097;28;20025;-74
2023/06/25 03:52:03;;;;;;;21.27;13.82;;;;;;;;;;5037153;28;20033;-72
2023/06/25 03:54:29;;;;;;;18.73;13.52;;;;;;;;;;5034161;28;20044;-73
2023/06/25 03:56:55;;;;;;;21.92;14.80;;;;;;;;;;5033701;28;20029;-74
2023/06/25 03:59:21;;;;;;;23.75;15.40;;;;;;;;;;5034191;28;20032;-72
2023/06/25 04:01:47;;;;;;;19.50;13.50;;;;;;;;;;5033533;28;20115;-72
2023/06/25 04:04:13;;;;;;;23.17;14.07;;;;;;;;;;5046889;28;20052;-75
2023/06/25 04:06:39;;;;;;;19.83;14.02;;;;;;;;;;5033099;28;20043;-74
2023/06/25 04:09:05;;;;;;;19.77;13.25;;;;;;;;;;5030674;28;20518;-72
2023/06/25 04:11:31;;;;;;;22.30;14.65;;;;;;;;;;5030775;28;20018;-72
2023/06/25 04:13:57;;;;;;;20.92;14.45;;;;;;;;;;5032047;28;20033;-73
2023/06/25 04:16:23;;;;;;;21.70;14.65;;;;;;;;;;5032048;28;20057;-73
2023/06/25 04:18:49;;;;;;;24.73;15.40;;;;;;;;;;5032513;28;20494;-73
2023/06/25 04:21:15;;;;;;;19.13;14.13;;;;;;;;;;5034712;28;20036;-73
2023/06/25 04:23:41;;;;;;;25.92;14.85;;;;;;;;;;5034399;28;20021;-72
2023/06/25 04:26:07;;;;;;;23.90;14.95;;;;;;;;;;5034807;28;20018;-72
2023/06/25 04:28:33;;;;;;;23.67;14.65;;;;;;;;;;5034547;28;20029;-74
2023/06/25 04:30:59;;;;;;;23.70;15.95;;;;;;;;;;5034502;28;20029;-74
2023/06/25 04:33:25;;;;;;;22.88;15.45;;;;;;;;;;5034157;28;20087;-76
2023/06/25 04:35:51;;;;;;;26.27;16.42;;;;;;;;;;5039431;28;20419;-77
2023/06/25 04:38:17;;;;;;;29.42;17.55;;;;;;;;;;5034076;28;20026;-76
2023/06/25 04:40:43;;;;;;;26.85;17.90;;;;;;;;;;5034702;28;20030;-75
2023/06/25 04:43:09;;;;;;;34.30;21.80;;;;;;;;;;5035034;28;20044;-76
2023/06/25 04:45:35;;;;;;;35.53;22.52;;;;;;;;;;5043954;28;20526;-76
2023/06/25 04:48:01;;;;;;;38.03;23.38;;;;;;;;;;5044775;28;20037;-76
2023/06/25 04:50:27;;;;;;;36.55;22.10;;;;;;;;;;5039647;28;20072;-77
2023/06/25 04:52:57;;;;;;;37.58;22.98;;;;;;;;;;5040467;28;20029;-78
2023/06/25 04:55:23;;;;;;;34.53;21.88;;;;;;;;;;5036785;28;20021;-76
2023/06/25 04:57:49;;;;;;;34.72;20.45;;;;;;;;;;5037850;28;20041;-76
2023/06/25 05:00:15;;;;;;;34.45;21.63;;;;;;;;;;5038792;28;20021;-75
2023/06/25 05:02:41;;;;;;;33.53;20.80;;;;;;;;;;5039617;28;20427;-75
2023/06/25 05:05:07;;;;;;;36.53;20.95;;;;;;;;;;5034101;28;20108;-76
2023/06/25 05:07:33;;;;;;;34.15;21.27;;;;;;;;;;5039460;28;20353;-75
2023/06/25 05:09:59;;;;;;;32.85;19.50;;;;;;;;;;5033974;28;20044;-75
2023/06/25 05:12:25;;;;;;;36.67;20.15;;;;;;;;;;5034655;28;20034;-77
2023/06/25 05:14:51;;;;;;;33.95;19.73;;;;;;;;;;5037271;28;20022;-76
2023/06/25 05:17:17;;;;;;;32.05;18.80;;;;;;;;;;5037912;28;20047;-75
2023/06/25 05:19:43;;;;;;;26.25;17.38;;;;;;;;;;5032518;28;20032;-73
2023/06/25 05:22:09;;;;;;;32.95;17.73;;;;;;;;;;5031879;28;20041;-73
2023/06/25 05:24:35;;;;;;;26.42;17.10;;;;;;;;;;5032952;28;20029;-73
2023/06/25 05:27:01;;;;;;;33.90;19.15;;;;;;;;;;5032248;28;20417;-74
2023/06/25 05:29:27;;;;;;;26.60;18.08;;;;;;;;;;5038240;28;20046;-73
2023/06/25 05:31:55;;;;;;;29.58;17.38;;;;;;;;;;5031368;28;20104;-73
2023/06/25 05:34:21;;;;;;;26.40;17.50;;;;;;;;;;5033751;28;20029;-74
2023/06/25 05:36:47;;;;;;;26.52;16.73;;;;;;;;;;5033109;28;20027;-75
2023/06/25 05:39:13;;;;;;;26.90;17.75;;;;;;;;;;5039771;28;20390;-74
2023/06/25 05:41:40;;;;;;;30.50;17.83;;;;;;;;;;5033368;28;20030;-73
2023/06/25 05:44:06;;;;;;;26.67;16.58;;;;;;;;;;5033872;28;20033;-72
2023/06/25 05:46:32;;;;;;;30.30;16.10;;;;;;;;;;5033181;28;20483;-74
2023/06/25 05:48:58;;;;;;;24.30;15.90;;;;;;;;;;5039973;28;20112;-72
2023/06/25 05:51:24;;;;;;;23.35;14.35;;;;;;;;;;5032975;28;20104;-73
2023/06/25 05:53:54;;;;;;;22.42;15.05;;;;;;;;;;5031924;28;20375;-74
2023/06/25 05:56:20;;;;;;;20.10;13.43;;;;;;;;;;5035409;28;20022;-74
2023/06/25 05:58:46;;;;;;;23.73;14.02;;;;;;;;;;5032903;28;20026;-75
2023/06/25 06:01:12;;;;;;;21.90;13.20;;;;;;;;;;5032954;28;20100;-76
2023/06/25 06:03:39;;;;;;;28.35;14.50;;;;;;;;;;5035681;28;20044;-74
2023/06/25 06:06:05;;;;;;;22.85;13.80;;;;;;;;;;5039662;28;20029;-76
2023/06/25 06:08:31;;;;;;;22.63;13.93;;;;;;;;;;5033553;28;20455;-75
2023/06/25 06:10:57;;;;;;;20.48;12.30;;;;;;;;;;5033605;28;20026;-75
2023/06/25 06:13:23;;;;;;;20.55;13.48;;;;;;;;;;5032907;28;20063;-74
2023/06/25 06:15:49;;;;;;;19.40;12.82;;;;;;;;;;5033338;28;20036;-75
2023/06/25 06:18:15;;;;;;;19.45;12.95;;;;;;;;;;5032999;28;20029;-78
2023/06/25 06:20:41;;;;;;;22.17;12.52;;;;;;;;;;5033157;28;20025;-75
2023/06/25 06:23:06;;;;;;;20.40;13.25;;;;;;;;;;5032993;28;20109;-72
2023/06/25 06:25:33;;;;;;;16.05;10.43;;;;;;;;;;5032921;28;20049;-72
2023/06/25 06:27:59;;;;;;;20.42;12.93;;;;;;;;;;5032626;28;20037;-72
2023/06/25 06:30:24;;;;;;;22.00;12.88;;;;;;;;;;5032726;28;20053;-71
2023/06/25 06:32:50;;;;;;;19.10;12.60;;;;;;;;;;5032481;28;20104;-74
2023/06/25 06:35:17;;;;;;;19.77;10.68;;;;;;;;;;5032456;28;20022;-73
2023/06/25 06:37:43;;;;;;;19.20;10.00;;;;;;;;;;5032223;28;20017;-72
2023/06/25 06:40:09;;;;;;;14.95;9.88;;;;;;;;;;5031857;28;20059;-72
2023/06/25 06:42:35;;;;;;;20.13;12.43;;;;;;;;;;5031543;28;20029;-73
2023/06/25 06:45:01;;;;;;;18.50;11.65;;;;;;;;;;5032083;28;20029;-72
2023/06/25 06:47:27;;;;;;;20.58;10.73;;;;;;;;;;5031704;28;20033;-74
2023/06/25 06:49:53;;;;;;;14.90;9.27;;;;;;;;;;5031985;28;20053;-72
2023/06/25 06:52:23;;;;;;;14.48;8.75;;;;;;;;;;5031582;28;20084;-74
2023/06/25 06:54:49;;;;;;;13.95;8.82;;;;;;;;;;5029915;28;20380;-74
2023/06/25 06:57:15;;;;;;;12.95;8.35;;;;;;;;;;5031409;28;20064;-73
2023/06/25 06:59:41;;;;;;;9.95;7.82;;;;;;;;;;5031120;28;20391;-73
2023/06/25 07:02:07;;;;;;;14.75;9.35;;;;;;;;;;5030111;28;20472;-72
2023/06/25 07:04:33;;;;;;;13.95;8.40;;;;;;;;;;5031142;28;20021;-72
2023/06/25 07:06:59;;;;;;;11.98;8.10;;;;;;;;;;5030529;28;20458;-73
2023/06/25 07:09:26;;;;;;;13.98;8.40;;;;;;;;;;5029233;28;20041;-72
2023/06/25 07:11:52;;;;;;;15.35;8.05;;;;;;;;;;5029593;28;20030;-72
2023/06/25 07:14:18;;;;;;;11.93;7.63;;;;;;;;;;5030589;28;20708;-72
2023/06/25 07:16:44;;;;;;;11.07;7.47;;;;;;;;;;5030711;28;20056;-72
2023/06/25 07:19:10;;;;;;;15.02;7.95;;;;;;;;;;5030635;28;20410;-72
2023/06/25 07:21:37;;;;;;;10.32;6.50;;;;;;;;;;5032577;28;20034;-74
2023/06/25 07:24:03;;;;;;;15.10;7.43;;;;;;;;;;5033597;28;20104;-73
2023/06/25 07:26:29;;;;;;;12.35;7.05;;;;;;;;;;5035086;28;20033;-72
2023/06/25 07:28:55;;;;;;;12.20;7.47;;;;;;;;;;5030899;28;20033;-72
2023/06/25 07:31:21;;;;;;;11.05;6.88;;;;;;;;;;5030794;28;20026;-72
2023/06/25 07:33:47;;;;;;;11.20;7.38;;;;;;;;;;5029744;28;20026;-72
2023/06/25 07:36:13;;;;;;;12.25;6.93;;;;;;;;;;5030463;28;20028;-72
2023/06/25 07:38:39;;;;;;;9.20;6.30;;;;;;;;;;5029928;28;20033;-72
2023/06/25 07:41:05;;;;;;;13.60;7.32;;;;;;;;;;5029840;28;20026;-71
2023/06/25 07:43:31;;;;;;;15.98;8.73;;;;;;;;;;5029019;28;20036;-72
2023/06/25 07:45:57;;;;;;;18.35;9.07;;;;;;;;;;5029333;28;20029;-72
2023/06/25 07:48:23;;;;;;;13.90;9.65;;;;;;;;;;5029689;28;20356;-74
2023/06/25 07:50:51;;;;;;;17.13;9.25;;;;;;;;;;5029990;28;20084;-75
2023/06/25 07:53:17;;;;;;;12.65;7.75;;;;;;;;;;5029390;28;20021;-72
2023/06/25 07:55:45;;;;;;;10.82;7.68;;;;;;;;;;5032921;28;20483;-71
2023/06/25 07:58:11;;;;;;;12.77;7.60;;;;;;;;;;5035015;28;20156;-72
2023/06/25 08:00:37;;;;;;;11.13;7.00;;;;;;;;;;5035743;28;20028;-72
2023/06/25 08:03:03;;;;;;;11.85;8.35;;;;;;;;;;5035608;28;20506;-73
2023/06/25 08:05:29;;;;;;;12.07;8.10;;;;;;;;;;5034950;28;20037;-72
2023/06/25 08:07:59;;;;;;;16.00;8.88;;;;;;;;;;5035190;28;20028;-71
2023/06/25 08:10:25;;;;;;;11.55;7.50;;;;;;;;;;5034586;28;20040;-73
2023/06/25 08:12:55;;;;;;;14.20;9.38;;;;;;;;;;5033763;28;20026;-73
2023/06/25 08:15:21;;;;;;;15.27;8.95;;;;;;;;;;5033373;28;20017;-73
2023/06/25 08:17:47;;;;;;;12.52;8.32;;;;;;;;;;5033776;28;20026;-73
2023/06/25 08:20:13;;;;;;;14.68;8.23;;;;;;;;;;5033641;28;20028;-72
2023/06/25 08:22:39;;;;;;;10.88;6.90;;;;;;;;;;5033042;28;20498;-73
2023/06/25 08:25:19;;;;;;;11.88;7.63;;;;;;;;;;5033547;28;20030;-72
2023/06/25 08:27:45;;;;;;;14.35;8.57;;;;;;;;;;5033368;28;20088;-73
2023/06/25 08:30:11;;;;;;;11.70;7.78;;;;;;;;;;5033669;28;20455;-73
2023/06/25 08:32:37;;;;;;;16.92;9.48;;;;;;;;;;5032807;28;20095;-73
2023/06/25 08:35:03;;;;;;;13.38;8.82;;;;;;;;;;5033763;28;20040;-71
2023/06/25 08:37:29;;;;;;;17.05;7.63;;;;;;;;;;5040514;28;20039;-73
2023/06/25 08:39:55;;;;;;;15.00;8.80;;;;;;;;;;5053131;28;20029;-73
2023/06/25 08:42:21;;;;;;;11.88;8.02;;;;;;;;;;5041123;28;20034;-74
2023/06/25 08:44:47;;;;;;;15.23;8.63;;;;;;;;;;5032735;28;20032;-73
2023/06/25 08:47:18;;;;;;;13.98;8.57;;;;;;;;;;5032567;28;20078;-73
2023/06/25 08:49:46;;;;;;;14.85;8.75;;;;;;;;;;5032429;28;20033;-73
2023/06/25 08:52:12;;;;;;;17.23;7.38;;;;;;;;;;5031858;28;20030;-73
2023/06/25 08:54:38;;;;;;;15.35;9.80;;;;;;;;;;5032053;28;20029;-73
2023/06/25 08:57:05;;;;;;;10.52;8.48;;;;;;;;;;5032163;28;20035;-72
2023/06/25 08:59:31;;;;;;;14.35;9.13;;;;;;;;;;5032581;28;20475;-73
2023/06/25 09:01:56;;;;;;;11.30;7.95;;;;;;;;;;5031341;28;20024;-73
2023/06/25 09:04:22;;;;;;;12.48;7.82;;;;;;;;;;5031763;28;20678;-72
2023/06/25 09:06:48;;;;;;;16.10;9.82;;;;;;;;;;5032270;28;20063;-74
2023/06/25 09:09:14;;;;;;;17.27;9.38;;;;;;;;;;5032381;28;20048;-74
2023/06/25 09:11:41;;;;;;;12.77;8.88;;;;;;;;;;5033062;28;20057;-72
2023/06/25 09:14:07;;;;;;;14.27;8.50;;;;;;;;;;5033324;28;20112;-73
2023/06/25 09:16:44;;;;;;;16.88;8.85;;;;;;;;;;5038679;28;20103;-72
2023/06/25 09:19:16;;;;;;;12.77;8.77;;;;;;;;;;5039201;28;20079;-72
2023/06/25 09:21:43;;;;;;;13.88;9.27;;;;;;;;;;5033588;28;20029;-72
2023/06/25 09:24:16;;;;;;;19.42;9.70;;;;;;;;;;5032517;28;20029;-71
2023/06/25 09:26:46;;;;;;;14.30;8.90;;;;;;;;;;5032778;28;20033;-73
2023/06/25 09:29:13;;;;;;;13.38;9.20;;;;;;;;;;5032061;28;20535;-72
2023/06/25 09:31:41;;;;;;;14.27;10.60;;;;;;;;;;5032493;28;20120;-73
2023/06/25 09:34:07;;;;;;;12.63;8.65;;;;;;;;;;5032271;28;20363;-72
2023/06/25 09:36:35;;;;;;;12.00;9.07;;;;;;;;;;5032543;28;20018;-72
2023/06/25 09:39:02;;;;;;;13.10;8.80;;;;;;;;;;5032459;28;20021;-73
2023/06/25 09:41:28;;;;;;;12.05;8.65;;;;;;;;;;5032525;28;20037;-73
2023/06/25 09:43:58;;;;;;;12.82;8.50;;;;;;;;;;5031431;28;20126;-72
2023/06/25 09:46:25;;;;;;;12.55;7.93;;;;;;;;;;5032168;28;20075;-73
2023/06/25 09:48:53;;;;;;;13.85;8.30;;;;;;;;;;5032055;28;20388;-74
2023/06/25 09:51:20;;;;;;;10.18;7.20;;;;;;;;;;5031980;28;20025;-73
2023/06/25 09:53:48;;;;;;;12.45;7.93;;;;;;;;;;5031285;28;20031;-73
2023/06/25 09:56:14;;;;;;;12.52;8.00;;;;;;;;;;5030695;28;20041;-73
2023/06/25 09:58:40;;;;;;;10.93;7.30;;;;;;;;;;5032051;28;20025;-73
2023/06/25 10:01:07;;;;;;;16.13;7.78;;;;;;;;;;5031595;28;20025;-73
2023/06/25 10:03:34;;;;;;;15.10;8.65;;;;;;;;;;5031195;28;20057;-73
2023/06/25 10:06:00;;;;;;;15.50;8.38;;;;;;;;;;5031834;28;20096;-72
2023/06/25 10:08:27;;;;;;;14.10;8.48;;;;;;;;;;5031220;28;20038;-74
2023/06/25 10:10:59;;;;;;;14.75;7.68;;;;;;;;;;5031565;28;20543;-73
2023/06/25 10:13:26;;;;;;;13.80;7.90;;;;;;;;;;5030676;28;20514;-72
2023/06/25 10:15:58;;;;;;;12.35;7.57;;;;;;;;;;5031414;28;20025;-73
2023/06/25 10:18:24;;;;;;;10.90;7.43;;;;;;;;;;5030918;28;20060;-72
2023/06/25 10:20:50;;;;;;;13.45;7.72;;;;;;;;;;5030839;28;20443;-72
2023/06/25 10:23:22;;;;;;;9.45;7.60;;;;;;;;;;5030836;28;20473;-74
2023/06/25 10:25:52;;;;;;;11.88;7.55;;;;;;;;;;5024982;28;20016;-73
2023/06/25 10:28:18;;;;;;;11.52;7.45;;;;;;;;;;5024347;28;20034;-73
2023/06/25 10:30:50;;;;;;;10.68;7.13;;;;;;;;;;5018066;28;20022;-73
2023/06/25 10:33:17;;;;;;;15.02;8.85;;;;;;;;;;5023694;28;20069;-71
2023/06/25 10:35:44;;;;;;;11.15;7.75;;;;;;;;;;5028187;28;20434;-73
2023/06/25 10:38:10;;;;;;;14.93;8.27;;;;;;;;;;5023525;28;20026;-72
2023/06/25 10:40:37;;;;;;;12.70;7.80;;;;;;;;;;5015136;28;20827;-72
2023/06/25 10:43:03;;;;;;;8.57;7.10;;;;;;;;;;5031056;28;20477;-71
2023/06/25 10:45:29;;;;;;;9.48;7.30;;;;;;;;;;5025248;28;20041;-72
2023/06/25 10:48:01;;;;;;;10.30;7.35;;;;;;;;;;5011303;28;20100;-72
2023/06/25 10:50:34;;;;;;;11.15;7.45;;;;;;;;;;5011836;28;20451;-72
2023/06/25 10:53:00;;;;;;;10.48;6.68;;;;;;;;;;5010832;28;20109;-72
2023/06/25 10:55:26;;;;;;;12.57;7.35;;;;;;;;;;5011964;28;20049;-73
2023/06/25 10:57:56;;;;;;;11.82;7.30;;;;;;;;;;5012602;28;20080;-73
2023/06/25 11:00:23;;;;;;;12.27;6.85;;;;;;;;;;5011549;28;20071;-73
2023/06/25 11:02:50;;;;;;;18.60;7.65;;;;;;;;;;5010967;28;20116;-73
2023/06/25 11:05:16;;;;;;;10.10;6.32;;;;;;;;;;5012889;28;20100;-73
2023/06/25 11:07:42;;;;;;;12.68;7.45;;;;;;;;;;5012187;28;20032;-72
2023/06/25 11:10:08;;;;;;;14.32;7.30;;;;;;;;;;5012139;28;20120;-73
2023/06/25 11:12:34;;;;;;;9.82;7.47;;;;;;;;;;5010912;28;20774;-72
2023/06/25 11:15:00;;;;;;;10.70;7.20;;;;;;;;;;5011081;28;20034;-72
2023/06/25 11:17:27;;;;;;;9.68;6.70;;;;;;;;;;5018322;28;20068;-72
2023/06/25 11:19:57;;;;;;;13.70;6.32;;;;;;;;;;5023410;28;20115;-73
2023/06/25 11:22:26;;;;;;;8.82;6.70;;;;;;;;;;5023197;28;20492;-73
2023/06/25 11:24:52;;;;;;;10.32;6.43;;;;;;;;;;5026140;28;20034;-72
2023/06/25 11:27:28;;;;;;;9.35;6.13;;;;;;;;;;5022562;28;20070;-73
2023/06/25 11:29:54;;;;;;;7.78;5.80;;;;;;;;;;5021575;28;20131;-73
2023/06/25 11:32:24;;;;;;;7.22;5.65;;;;;;;;;;5011742;28;20022;-73
2023/06/25 11:34:50;;;;;;;12.85;6.30;;;;;;;;;;5031584;28;20036;-74
2023/06/25 11:37:18;;;;;;;9.60;6.38;;;;;;;;;;5018665;28;20126;-74
2023/06/25 11:39:48;;;;;;;8.05;6.00;;;;;;;;;;5030331;28;20013;-73
2023/06/25 11:42:21;;;;;;;11.77;5.82;;;;;;;;;;5022831;28;20116;-72
2023/06/25 11:44:57;;;;;;;10.98;6.80;;;;;;;;;;5023763;28;20028;-73
2023/06/25 11:47:23;;;;;;;9.25;6.00;;;;;;;;;;5030334;28;20026;-73
2023/06/25 11:49:53;;;;;;;11.93;7.78;;;;;;;;;;5022421;28;20033;-73
2023/06/25 11:52:19;;;;;;;11.63;7.40;;;;;;;;;;5028678;28;20111;-73
2023/06/25 11:54:45;;;;;;;9.75;6.82;;;;;;;;;;5035603;28;20064;-73
2023/06/25 11:57:11;;;;;;;10.55;5.72;;;;;;;;;;5023370;28;20029;-73
2023/06/25 11:59:37;;;;;;;9.05;6.10;;;;;;;;;;5027897;28;20018;-72
2023/06/25 12:02:03;;;;;;;11.40;6.35;;;;;;;;;;5030813;28;20052;-74
2023/06/25 12:04:29;;;;;;;9.13;5.90;;;;;;;;;;5019292;28;20025;-75
2023/06/25 12:06:55;;;;;;;10.32;6.57;;;;;;;;;;5024091;28;20104;-74
2023/06/25 12:09:21;;;;;;;9.70;6.13;;;;;;;;;;5031140;28;20392;-73
2023/06/25 12:11:47;;;;;;;7.13;5.07;;;;;;;;;;5030941;28;20030;-73
2023/06/25 12:14:13;;;;;;;9.00;5.78;;;;;;;;;;5031398;28;20438;-72
2023/06/25 12:16:39;;;;;;;10.05;6.47;;;;;;;;;;5031481;28;20025;-74
2023/06/25 12:19:05;;;;;;;7.68;6.03;;;;;;;;;;5031446;28;20099;-73
2023/06/25 12:21:32;;;;;;;7.38;5.50;;;;;;;;;;5030814;28;20025;-73
2023/06/25 12:23:58;;;;;;;8.73;5.55;;;;;;;;;;5030716;28;20576;-73
2023/06/25 12:26:24;;;;;;;5.80;5.03;;;;;;;;;;5029546;28;20025;-73
2023/06/25 12:28:50;;;;;;;6.18;5.10;;;;;;;;;;5031849;28;20028;-71
2023/06/25 12:31:16;;;;;;;9.45;4.95;;;;;;;;;;5031779;28;20075;-73
2023/06/25 12:33:42;;;;;;;7.72;5.43;;;;;;;;;;5031368;28;20033;-73
2023/06/25 12:36:09;;;;;;;8.50;4.78;;;;;;;;;;5030957;28;20024;-73
2023/06/25 12:38:35;;;;;;;6.63;4.90;;;;;;;;;;5030762;28;20091;-75
2023/06/25 12:41:01;;;;;;;9.95;6.10;;;;;;;;;;5033242;28;20503;-73
2023/06/25 12:43:27;;;;;;;8.43;5.72;;;;;;;;;;5034663;28;20021;-74
2023/06/25 12:45:53;;;;;;;8.65;5.15;;;;;;;;;;5034813;28;20369;-73
2023/06/25 12:48:19;;;;;;;10.50;4.57;;;;;;;;;;5035355;28;20201;-73
2023/06/25 12:50:45;;;;;;;6.97;4.72;;;;;;;;;;5034863;28;20025;-74
2023/06/25 12:53:11;;;;;;;6.50;4.75;;;;;;;;;;5034534;28;20565;-73
2023/06/25 12:55:37;;;;;;;8.00;4.72;;;;;;;;;;5034502;28;20046;-72
2023/06/25 12:58:03;;;;;;;12.18;6.55;;;;;;;;;;5034223;28;20420;-74
2023/06/25 13:00:29;;;;;;;8.07;5.45;;;;;;;;;;5034473;28;20087;-74
2023/06/25 13:02:55;;;;;;;7.78;5.30;;;;;;;;;;5034142;28;20025;-73
2023/06/25 13:05:21;;;;;;;6.88;4.55;;;;;;;;;;5034227;28;20386;-73
2023/06/25 13:07:47;;;;;;;9.65;5.25;;;;;;;;;;5034090;28;20029;-73
2023/06/25 13:10:13;;;;;;;6.20;4.40;;;;;;;;;;5033888;28;20033;-74
2023/06/25 13:12:39;;;;;;;7.15;4.43;;;;;;;;;;5033778;28;20057;-73
2023/06/25 13:15:06;;;;;;;8.60;4.15;;;;;;;;;;5034136;28;20032;-73
2023/06/25 13:17:32;;;;;;;5.18;3.90;;;;;;;;;;5034208;28;20021;-73
2023/06/25 13:19:58;;;;;;;6.60;4.00;;;;;;;;;;5035009;28;20029;-74
2023/06/25 13:22:24;;;;;;;11.00;5.32;;;;;;;;;;5034162;28;20029;-73
2023/06/25 13:24:50;;;;;;;7.65;4.38;;;;;;;;;;5034602;28;20104;-73
2023/06/25 13:27:16;;;;;;;6.55;4.00;;;;;;;;;;5033974;28;20026;-73
2023/06/25 13:29:42;;;;;;;6.13;3.53;;;;;;;;;;5033796;28;20025;-72
2023/06/25 13:32:09;;;;;;;6.72;4.47;;;;;;;;;;5033168;28;20035;-74
2023/06/25 13:34:35;;;;;;;6.88;4.68;;;;;;;;;;5033658;28;20026;-73
2023/06/25 13:37:01;;;;;;;8.85;4.85;;;;;;;;;;5033353;28;20104;-72
2023/06/25 13:39:27;;;;;;;6.03;4.03;;;;;;;;;;5033476;28;20075;-74
2023/06/25 13:41:53;;;;;;;4.35;3.55;;;;;;;;;;5033044;28;20476;-73
2023/06/25 13:44:19;;;;;;;6.97;4.10;;;;;;;;;;5033580;28;20099;-72
2023/06/25 13:46:45;;;;;;;6.85;4.25;;;;;;;;;;5034309;28;20439;-74
2023/06/25 13:49:11;;;;;;;5.65;4.10;;;;;;;;;;5034511;28;20022;-75
2023/06/25 13:51:37;;;;;;;7.05;4.85;;;;;;;;;;5034775;28;20075;-75
2023/06/25 13:54:03;;;;;;;7.55;4.68;;;;;;;;;;5036560;28;20076;-74
2023/06/25 13:56:29;;;;;;;10.05;4.32;;;;;;;;;;5034843;28;20025;-74
2023/06/25 13:58:55;;;;;;;5.78;4.43;;;;;;;;;;5034556;28;20026;-74
2023/06/25 14:01:21;;;;;;;5.65;3.67;;;;;;;;;;5034580;28;20096;-75
2023/06/25 14:03:47;;;;;;;7.57;4.90;;;;;;;;;;5034231;28;20068;-76
2023/06/25 14:06:14;;;;;;;7.85;5.15;;;;;;;;;;5035549;28;20026;-75
2023/06/25 14:08:40;;;;;;;7.90;4.80;;;;;;;;;;5034501;28;20040;-75
2023/06/25 14:11:06;;;;;;;5.22;4.53;;;;;;;;;;5033537;28;20028;-75
2023/06/25 14:13:33;;;;;;;10.68;5.22;;;;;;;;;;5033814;28;20026;-76
2023/06/25 14:15:59;;;;;;;6.13;4.35;;;;;;;;;;5035219;28;20029;-76
2023/06/25 14:18:26;;;;;;;13.05;5.00;;;;;;;;;;5039235;28;20034;-74
2023/06/25 14:20:52;;;;;;;5.80;4.78;;;;;;;;;;5038545;28;20100;-75
2023/06/25 14:23:18;;;;;;;6.60;4.60;;;;;;;;;;5037647;28;20033;-73